x

Cape Cleare - 17 Nm South Of Montague Is, Ak (46076) Wave Buoy

1:50pm - Fri 28th Aug 2015 All times are AKDT. -8 hours from GMT.

  • Sig Wave height 5.2ft
  • Swell Direction
  • Peak Period 7s
  • Average Period 5s
  • Wind
    16mph, 18mph gusts
  • Sea Temp 58°f
  • Air Temp 58°f
  • Sea Pressure 1001.9mb
  • Cape Cleare - 17 Nm South Of Montague Is,  Ak
  • Cape Cleare - 17 Nm South Of Montague Is,  Ak

More Historic Weather Station data

Upgrade to MSW Pro to gain access to the past 30 days of data for over 8000 Wavebouys and Weather Stations around the globe.

Join Pro

Comparision Forecast

View Surf forecast
   
Fri 08/28 1:50pm 5ft 7s 5s 16 18 mph 1001.9mb 58f 58f
12:50pm 5.5ft 7s 5s 16 18 mph 1002.3mb 58f 58f
11:50am 5ft 6s 5s 20 25 mph 1002.5mb 58f 58f
10:50am 5.5ft 6s 5s 22 27 mph 1002.3mb 58f 58f
9:50am 5.5ft 6s 5s 20 27 mph 1002.6mb 58f 57f
8:50am 6.5ft 6s 6s 25 29 mph 1002.6mb 58f 57f
7:50am 6ft 6s 5s 25 29 mph 1002.6mb 57f 57f
6:50am 6ft 7s 5s 25 27 mph 1002.4mb 57f 57f
5:50am 6.5ft 5s 5s 25 31 mph 1001.9mb 56f 57f
4:50am 7.5ft 5s 5s 27 31 mph 1001.3mb 57f 58f
3:50am 7.5ft 5s 5s 29 36 mph 1000.2mb 57f 58f
2:50am 6.5ft 7s 5s 27 29 mph 1000.4mb 57f 58f
1:50am 7ft 7s 5s 27 34 mph 999.5mb 57f 58f
12:50am 6.5ft 9s 5s 27 34 mph 998.8mb 58f 58f
Thu 08/27 11:50pm 6.5ft 6s 5s 27 34 mph 998.3mb 58f 58f
10:50pm 7.5ft 9s 6s 27 34 mph 998.5mb 58f 58f
9:50pm 6.5ft 6s 6s 25 29 mph 998mb 58f 60f
8:50pm 6ft 6s 6s 25 31 mph 998mb 59f 59f
7:50pm 6ft 8s 6s 27 31 mph 998.1mb 59f 60f
6:50pm 6.5ft 8s 6s 22 29 mph 998.4mb 59f 61f
5:50pm 6.5ft 8s 6s 25 31 mph 998.7mb 59f 61f
4:50pm 6ft 8s 6s 22 29 mph 1000.1mb 59f 60f
3:50pm 5ft 7s 5s 18 20 mph 1001.1mb 59f 61f
2:50pm 5ft 8s 5s 16 20 mph 1001.6mb 58f 60f
1:50pm 5ft 6s 5s 18 20 mph 1001.9mb 58f 59f
12:50pm 4.5ft 7s 6s 13 16 mph 1002.8mb 58f 58f
11:50am 4.5ft 6s 6s 11 16 mph 1003.6mb 58f 57f
10:50am 4.5ft 7s 6s 9 11 mph 1004mb 58f 57f
9:50am 3.5ft 7s 6s 7 9 mph 1004.3mb 58f 57f
8:50am 3.5ft 6s 6s 4
mph
1005.5mb 58f 57f
7:50am 3ft 7s 5s 2 4 mph 1006.6mb 58f 57f
6:50am 3.5ft 6s 5s 4 7 mph 1007.5mb 58f 57f
5:50am 3.5ft 6s 6s 7 9 mph 1008.2mb 58f 57f
4:50am 3.5ft 7s 5s 4 7 mph 1009.6mb 58f 57f
3:50am 3.5ft 7s 5s 7
mph
1010.2mb 58f 57f
2:50am 3.5ft 6s 5s 4
mph
1010.9mb 58f 57f
1:50am 3.5ft 7s 5s  -  2 mph 1011.6mb 58f 58f
12:50am 3.5ft 6s 5s 9
mph
1012mb 58f 58f
Wed 08/26 11:50pm 3ft 7s 5s 9 11 mph 1012mb 58f 57f
10:50pm 3.5ft 6s 5s 7 9 mph 1012.5mb 58f 58f
9:50pm 4ft 7s 6s 7 9 mph 1012.7mb 58f 58f
8:50pm 4.5ft 7s 6s 7
mph
1012.8mb 59f 58f
7:50pm 5ft 8s 6s 4 7 mph 1012.8mb 59f 58f
6:50pm 5ft 6s 5s 11 16 mph 1013.8mb 59f 57f
5:50pm 5ft 6s 5s 18 20 mph 1013.8mb 59f 58f
4:50pm 4.5ft 6s 5s 20 25 mph 1014.2mb 59f 58f
3:50pm 4.5ft 6s 5s 18 22 mph 1014.6mb 59f 58f
2:50pm 3.5ft 6s 5s 20 22 mph 1015.3mb 59f 58f
1:50pm 3.5ft 5s 5s 16 18 mph 1015.6mb 59f 58f
12:50pm 3.5ft 14s 5s 13 16 mph 1016.5mb 59f 57f
11:50am 3ft 14s 4s 13 16 mph 1017.3mb 58f 58f
10:50am 2.5ft 14s 5s 13 16 mph 1017.6mb 58f 57f
9:50am 2ft 14s 5s 11 13 mph 1017.9mb 58f 57f
8:50am 2.5ft 15s 6s 9 11 mph 1018.9mb 58f 57f
7:50am 2.5ft 14s 6s 7
mph
1019mb 59f 58f
6:50am 2ft 13s 6s 4 7 mph 1019.6mb 59f 57f
5:50am 2.5ft 15s 6s 4 7 mph 1020.2mb 59f 58f
4:50am 2.5ft 15s 6s 4 7 mph 1020.4mb 59f 58f
3:50am 2.5ft 13s 6s 4 7 mph 1020.7mb 60f 58f
2:50am 2.5ft 15s 6s 4
mph
1020.6mb 59f 58f
1:50am 2.5ft 14s 6s 2
mph
1020.9mb 59f 58f
12:50am 2.5ft 15s 6s 2 4 mph 1021.4mb 59f 59f
Tue 08/25 11:50pm 2.5ft 14s 6s 4 7 mph 1021.5mb 59f 58f
10:50pm 2.5ft 6s 5s 7 9 mph 1021.4mb 60f 58f
9:50pm 3ft 6s 6s 4 7 mph 1021.4mb 59f 58f
8:50pm 2.5ft 6s 6s 4 7 mph 1021.5mb 60f 59f
7:50pm 2.5ft 14s 6s 4
mph
1021.8mb 60f 60f
6:50pm 2.5ft 14s 6s  -  2 mph 1021.8mb 61f 61f
5:50pm 2.5ft 14s 6s  -  2 mph 1022.2mb 60f 60f
4:50pm 2.5ft 14s 6s 4
mph
1022.4mb 60f 59f
3:50pm 2ft 14s 5s 2
mph
1022.4mb 61f 61f
2:50pm 2.5ft 15s 6s 2
mph
1022.3mb 60f 59f
1:50pm 2.5ft 15s 6s 4
mph
1022.5mb 59f 59f
12:50pm 2.5ft 13s 6s 4 7 mph 1022.1mb 59f 58f
11:50am 2.5ft 14s 7s 4 7 mph 1022mb 59f 58f
10:50am 2.5ft 14s 6s 2
mph
1022.1mb 59f 58f
9:50am 2.5ft 14s 6s 4
mph
1022.1mb 58f 58f
8:50am 2.5ft 15s 6s 4
mph
1021.9mb 58f 58f
7:50am 2.5ft 14s 6s 7 9 mph 1021.7mb 58f 58f
6:50am 2.5ft 14s 6s 7
mph
1021.9mb 58f 58f
5:50am 2.5ft 15s 6s 7 9 mph 1022.2mb 58f 58f
4:50am 2.5ft 15s 6s 9 11 mph 1022.4mb 59f 58f
3:50am 2.5ft 6s 6s 9
mph
1022.1mb 58f 58f
2:50am 3ft 15s 6s 7 9 mph 1022mb 59f 58f
1:50am 3ft 15s 6s 7 9 mph 1022mb 58f 58f
12:50am 3ft 15s 6s 9 11 mph 1022.1mb 58f 58f
Mon 08/24 11:50pm 3ft 15s 6s 9 11 mph 1022mb 58f 58f